createdAt,value
2019-06-07T00:00:53.575Z,11.00
2019-06-07T00:03:29.555Z,10.80
2019-06-07T00:05:52.567Z,10.80
2019-06-07T00:08:27.161Z,10.80
2019-06-07T00:10:51.339Z,10.80
2019-06-07T00:13:20.369Z,10.70
2019-06-07T00:15:50.623Z,10.80
2019-06-07T00:18:25.145Z,10.60
2019-06-07T00:20:49.538Z,10.70
2019-06-07T00:23:22.181Z,10.50
2019-06-07T00:26:10.757Z,10.60
2019-06-07T00:28:39.589Z,10.70
2019-06-07T00:31:11.447Z,10.50
2019-06-07T00:33:39.966Z,10.50
2019-06-07T00:36:10.132Z,10.60
2019-06-07T00:38:38.915Z,10.60
2019-06-07T00:41:07.563Z,10.60
2019-06-07T00:43:36.187Z,10.70
2019-06-07T00:46:04.925Z,10.70
2019-06-07T00:48:33.591Z,10.70
2019-06-07T00:51:02.146Z,10.70
2019-06-07T00:53:32.487Z,10.60
2019-06-07T00:56:01.059Z,10.50
2019-06-07T00:58:29.739Z,10.50
2019-06-07T01:00:58.467Z,10.40
2019-06-07T01:03:27.016Z,10.40
2019-06-07T01:05:55.594Z,10.50
2019-06-07T01:08:27.686Z,10.30
2019-06-07T01:10:55.911Z,10.40
2019-06-07T01:13:26.777Z,10.40
2019-06-07T01:15:54.764Z,10.40
2019-06-07T01:18:37.442Z,10.40
2019-06-07T01:20:53.803Z,10.40
2019-06-07T01:24:01.401Z,10.40
2019-06-07T01:26:12.067Z,10.30
2019-06-07T01:28:40.622Z,10.20
2019-06-07T01:31:09.344Z,10.10
2019-06-07T01:33:50.276Z,10.20
2019-06-07T01:36:09.731Z,10.10
2019-06-07T01:38:38.410Z,10.10
2019-06-07T01:41:28.456Z,10.10
2019-06-07T01:44:18.568Z,10.10
2019-06-07T01:46:46.286Z,10.00
2019-06-07T01:49:14.827Z,10.00
2019-06-07T01:52:02.743Z,10.00
2019-06-07T01:57:01.752Z,10.00
2019-06-07T01:59:31.626Z,10.00
2019-06-07T02:02:00.999Z,10.00
2019-06-07T02:04:32.888Z,10.00
2019-06-07T02:07:01.541Z,9.80
2019-06-07T02:09:32.054Z,9.70
2019-06-07T02:12:00.248Z,9.70
2019-06-07T02:14:32.432Z,9.50
2019-06-07T02:16:59.110Z,9.50
2019-06-07T02:19:39.879Z,9.60
2019-06-07T02:22:08.492Z,9.60
2019-06-07T02:24:37.310Z,9.70
2019-06-07T02:27:26.074Z,9.70
2019-06-07T02:29:55.650Z,9.70
2019-06-07T02:32:28.859Z,9.60
2019-06-07T02:35:14.084Z,9.60
2019-06-07T02:37:54.558Z,9.60
2019-06-07T02:40:29.951Z,9.70
2019-06-07T02:43:14.262Z,9.70
2019-06-07T02:45:44.384Z,9.70
2019-06-07T02:48:12.989Z,9.60
2019-06-07T02:50:41.671Z,9.50
2019-06-07T02:53:30.759Z,9.60
2019-06-07T02:56:34.880Z,9.50
2019-06-07T02:58:34.501Z,9.60
2019-06-07T03:01:08.388Z,9.60
2019-06-07T03:03:33.714Z,9.60
2019-06-07T03:06:03.567Z,9.60
2019-06-07T03:08:52.446Z,9.70
2019-06-07T03:11:42.207Z,9.50
2019-06-07T03:14:12.493Z,9.50
2019-06-07T03:16:44.285Z,9.40
2019-06-07T03:19:14.640Z,9.50
2019-06-07T03:21:44.963Z,9.50
2019-06-07T03:24:13.707Z,9.60
2019-06-07T03:29:33.816Z,9.60
2019-06-07T03:32:02.303Z,9.50
2019-06-07T03:34:37.721Z,9.50
2019-06-07T03:37:01.274Z,9.50
2019-06-07T03:39:31.247Z,9.50
2019-06-07T03:42:06.361Z,9.50
2019-06-07T03:44:35.583Z,9.50
2019-06-07T03:47:02.348Z,9.60
2019-06-07T03:49:35.466Z,9.60
2019-06-07T03:52:21.298Z,9.70
2019-06-07T03:54:50.041Z,9.80
2019-06-07T03:57:18.600Z,9.60
2019-06-07T03:59:47.416Z,9.70
2019-06-07T04:02:15.974Z,9.70
2019-06-07T04:04:44.549Z,9.80
2019-06-07T04:07:14.610Z,9.90
2019-06-07T04:09:43.472Z,10.00
2019-06-07T04:12:13.622Z,10.10
2019-06-07T04:14:42.966Z,10.20
2019-06-07T04:17:11.735Z,10.40
2019-06-07T04:19:43.222Z,10.60
2019-06-07T04:22:10.630Z,10.70
2019-06-07T04:24:41.942Z,10.80
2019-06-07T04:27:09.447Z,10.90
2019-06-07T04:30:02.949Z,11.10
2019-06-07T04:32:08.291Z,11.20
2019-06-07T04:34:56.284Z,11.20
2019-06-07T04:37:28.502Z,11.20
2019-06-07T04:39:57.467Z,11.30
2019-06-07T04:42:29.790Z,11.50
2019-06-07T04:44:59.938Z,11.70
2019-06-07T04:47:29.673Z,11.80
2019-06-07T04:50:01.055Z,11.90
2019-06-07T04:52:32.179Z,11.90
2019-06-07T04:55:01.689Z,11.90
2019-06-07T04:57:33.467Z,12.00
2019-06-07T05:00:22.264Z,12.10
2019-06-07T05:02:32.002Z,12.30
2019-06-07T05:05:00.835Z,12.60
2019-06-07T05:07:48.795Z,13.00
2019-06-07T05:10:17.378Z,13.40
2019-06-07T05:12:45.940Z,14.10
2019-06-07T05:15:14.546Z,15.50
2019-06-07T05:17:44.973Z,16.80
2019-06-07T05:20:34.209Z,18.00
2019-06-07T05:23:03.015Z,19.00
2019-06-07T05:25:51.750Z,20.20
2019-06-07T05:28:20.678Z,20.90
2019-06-07T05:31:07.292Z,20.60
2019-06-07T05:33:19.613Z,20.40
2019-06-07T05:35:48.186Z,20.00
2019-06-07T05:38:16.662Z,20.00
2019-06-07T05:40:48.807Z,19.20
2019-06-07T05:43:24.361Z,19.50
2019-06-07T05:45:53.134Z,19.30
2019-06-07T05:48:21.895Z,18.90
2019-06-07T05:50:56.793Z,19.50
2019-06-07T05:53:20.924Z,20.00
2019-06-07T05:55:51.715Z,20.50
2019-06-07T05:58:21.801Z,20.00
2019-06-07T06:00:51.445Z,20.40
2019-06-07T06:03:40.474Z,20.40
2019-06-07T06:06:09.540Z,20.70
2019-06-07T06:08:41.380Z,20.50
2019-06-07T06:11:08.725Z,20.60
2019-06-07T06:14:01.555Z,20.10
2019-06-07T06:16:10.986Z,20.30
2019-06-07T06:18:40.685Z,19.60
2019-06-07T06:21:19.185Z,19.30
2019-06-07T06:23:42.438Z,19.00
2019-06-07T06:26:10.367Z,19.10
2019-06-07T06:28:40.109Z,18.90
2019-06-07T06:31:08.843Z,17.60
2019-06-07T06:33:37.536Z,17.20
2019-06-07T06:36:06.279Z,17.40
2019-06-07T06:38:34.953Z,17.50
2019-06-07T06:41:22.877Z,17.30
2019-06-07T06:43:52.590Z,17.40
2019-06-07T06:46:37.925Z,17.70
2019-06-07T06:48:55.378Z,18.00
2019-06-07T06:51:24.648Z,18.00
2019-06-07T06:53:53.349Z,17.80
2019-06-07T06:56:25.027Z,18.00
2019-06-07T06:59:34.172Z,18.00
2019-06-07T07:01:31.768Z,18.10
2019-06-07T07:04:17.218Z,17.90
2019-06-07T07:07:05.170Z,17.90
2019-06-07T07:09:34.560Z,17.50
2019-06-07T07:12:12.317Z,17.80
2019-06-07T07:14:33.529Z,18.00
2019-06-07T07:17:02.280Z,18.20
2019-06-07T07:19:30.896Z,18.30
2019-06-07T07:21:59.618Z,18.10
2019-06-07T07:24:28.249Z,17.90
2019-06-07T07:26:58.426Z,18.00
2019-06-07T07:29:49.639Z,18.10
2019-06-07T07:32:16.732Z,18.20
2019-06-07T07:34:46.233Z,18.50
2019-06-07T07:37:15.659Z,18.60
2019-06-07T07:39:46.363Z,18.60
2019-06-07T07:42:21.219Z,18.30
2019-06-07T07:44:47.158Z,18.10
2019-06-07T07:47:18.407Z,18.10
2019-06-07T07:49:48.514Z,18.20
2019-06-07T07:52:17.596Z,18.50
2019-06-07T07:57:35.949Z,18.60
2019-06-07T08:00:48.636Z,18.60
2019-06-07T08:02:36.599Z,18.30
2019-06-07T08:05:25.496Z,18.20
2019-06-07T08:07:40.148Z,18.30
2019-06-07T08:10:11.045Z,18.60
2019-06-07T08:13:00.281Z,18.60
2019-06-07T08:15:30.455Z,18.50
2019-06-07T08:18:03.771Z,18.70
2019-06-07T08:20:30.186Z,18.60
2019-06-07T08:23:01.130Z,18.40
2019-06-07T08:25:29.105Z,18.50
2019-06-07T08:28:17.308Z,18.50
2019-06-07T08:30:50.820Z,18.80
2019-06-07T08:33:25.784Z,19.30
2019-06-07T08:38:29.754Z,19.70
2019-06-07T08:40:53.649Z,19.60
2019-06-07T08:43:21.024Z,19.70
2019-06-07T08:46:07.051Z,19.70
2019-06-07T08:48:31.803Z,19.80
2019-06-07T08:51:06.556Z,19.70
2019-06-07T08:53:30.720Z,19.50
2019-06-07T08:56:06.981Z,19.30
2019-06-07T08:58:29.491Z,19.20
2019-06-07T09:01:05.617Z,19.30
2019-06-07T09:03:29.217Z,19.20
2019-06-07T09:06:06.120Z,19.20
2019-06-07T09:08:30.685Z,19.00
2019-06-07T09:10:59.459Z,19.20
2019-06-07T09:13:28.499Z,19.50
2019-06-07T09:16:03.591Z,19.70
2019-06-07T09:18:41.960Z,19.90
2019-06-07T09:21:00.445Z,20.10
2019-06-07T09:23:27.858Z,20.10
2019-06-07T09:26:05.230Z,20.00
2019-06-07T09:28:27.478Z,20.20
2019-06-07T09:30:57.862Z,20.00
2019-06-07T09:33:26.470Z,19.90
2019-06-07T09:35:58.686Z,19.80
2019-06-07T09:38:47.693Z,20.00
2019-06-07T09:41:16.337Z,20.20
2019-06-07T09:44:01.343Z,20.30
2019-06-07T09:46:17.101Z,20.20
2019-06-07T09:49:14.261Z,20.20
2019-06-07T09:51:19.822Z,20.30
2019-06-07T09:53:46.495Z,20.50
2019-06-07T09:56:15.150Z,20.50
2019-06-07T09:58:51.849Z,20.40
2019-06-07T10:01:15.461Z,20.40
2019-06-07T10:03:44.083Z,20.50
2019-06-07T10:06:13.894Z,20.50
2019-06-07T10:11:15.831Z,20.70
2019-06-07T10:13:44.568Z,20.70
2019-06-07T10:16:13.186Z,20.80
2019-06-07T10:18:41.751Z,21.00
2019-06-07T10:21:14.856Z,21.10
2019-06-07T10:23:40.833Z,21.10
2019-06-07T10:26:10.161Z,21.10
2019-06-07T10:28:38.838Z,21.30
2019-06-07T10:31:09.507Z,21.30
2019-06-07T10:33:37.878Z,21.40
2019-06-07T10:36:06.661Z,21.50
2019-06-07T10:38:35.259Z,21.50
2019-06-07T10:41:04.720Z,21.60
2019-06-07T10:43:33.382Z,21.60
2019-06-07T10:46:03.527Z,21.70
2019-06-07T10:48:32.178Z,21.70
2019-06-07T10:51:02.120Z,21.80
2019-06-07T10:53:50.168Z,21.70
2019-06-07T10:56:18.831Z,21.70
2019-06-07T10:58:47.392Z,21.90
2019-06-07T11:01:16.107Z,22.10
2019-06-07T11:03:44.723Z,22.20
2019-06-07T11:06:14.563Z,22.20
2019-06-07T11:08:43.223Z,22.30
2019-06-07T11:11:12.283Z,22.30
2019-06-07T11:13:40.920Z,22.30
2019-06-07T11:16:11.084Z,22.40
2019-06-07T11:18:39.899Z,22.20
2019-06-07T11:21:08.432Z,22.20
2019-06-07T11:23:37.011Z,22.30
2019-06-07T11:26:06.212Z,22.30
2019-06-07T11:28:34.850Z,22.40
2019-06-07T11:31:03.405Z,22.40
2019-06-07T11:33:31.980Z,22.50
2019-06-07T11:36:00.656Z,22.60
2019-06-07T11:38:30.779Z,22.80
2019-06-07T11:40:59.318Z,22.90
2019-06-07T11:43:27.963Z,22.90
2019-06-07T11:45:56.510Z,22.70
2019-06-07T11:48:25.086Z,22.60
2019-06-07T11:50:53.702Z,22.70
2019-06-07T11:53:22.351Z,22.80
2019-06-07T11:55:50.894Z,22.90
2019-06-07T11:58:21.784Z,22.90
2019-06-07T12:00:49.919Z,22.80
2019-06-07T12:03:18.552Z,22.90
2019-06-07T12:05:47.162Z,23.00
2019-06-07T12:08:16.105Z,23.00
2019-06-07T12:10:44.761Z,23.00
2019-06-07T12:13:15.340Z,22.90
2019-06-07T12:15:43.607Z,23.10
2019-06-07T12:18:13.101Z,23.30
2019-06-07T12:20:41.732Z,23.50
2019-06-07T12:23:11.923Z,23.50
2019-06-07T12:25:40.694Z,23.60
2019-06-07T12:28:10.598Z,23.70
2019-06-07T12:30:39.235Z,23.70
2019-06-07T12:33:07.948Z,23.30
2019-06-07T12:35:36.502Z,23.40
2019-06-07T12:38:05.229Z,23.40
2019-06-07T12:40:33.852Z,23.50
2019-06-07T12:43:02.495Z,23.60
2019-06-07T12:45:44.602Z,23.60
2019-06-07T12:48:25.781Z,23.70
2019-06-07T12:50:52.639Z,23.80
2019-06-07T12:53:25.936Z,23.80
2019-06-07T12:55:51.551Z,23.90
2019-06-07T12:58:27.215Z,24.00
2019-06-07T13:00:50.471Z,24.00
2019-06-07T13:03:20.849Z,24.20
2019-06-07T13:05:49.266Z,24.30
2019-06-07T13:08:17.926Z,24.10
2019-06-07T13:10:46.559Z,24.10
2019-06-07T13:13:15.781Z,24.30
2019-06-07T13:15:44.423Z,24.30
2019-06-07T13:18:15.190Z,24.30
2019-06-07T13:20:43.375Z,24.40
2019-06-07T13:23:11.947Z,24.50
2019-06-07T13:25:46.061Z,24.40
2019-06-07T13:28:11.004Z,24.40
2019-06-07T13:30:39.563Z,24.50
2019-06-07T13:33:08.204Z,24.50
2019-06-07T13:35:36.746Z,24.50
2019-06-07T13:38:26.647Z,24.70
2019-06-07T13:40:56.507Z,24.90
2019-06-07T13:43:25.771Z,24.60
2019-06-07T13:45:54.554Z,24.50
2019-06-07T13:48:23.398Z,24.50
2019-06-07T13:50:52.052Z,24.50
2019-06-07T13:53:20.777Z,24.50
2019-06-07T13:55:49.381Z,24.70
2019-06-07T13:58:18.697Z,24.70
2019-06-07T14:00:47.952Z,24.50
2019-06-07T14:03:20.310Z,24.30
2019-06-07T14:05:47.014Z,24.30
2019-06-07T14:08:15.774Z,24.30
2019-06-07T14:10:44.351Z,24.30
2019-06-07T14:13:12.900Z,24.40
2019-06-07T14:15:41.563Z,24.60
2019-06-07T14:18:10.119Z,24.80
2019-06-07T14:20:38.685Z,25.10
2019-06-07T14:23:07.600Z,25.20
2019-06-07T14:25:36.246Z,25.10
2019-06-07T14:28:10.859Z,25.10
2019-06-07T14:30:35.285Z,25.10
2019-06-07T14:33:04.010Z,25.00
2019-06-07T14:35:33.666Z,25.00
2019-06-07T14:38:02.442Z,24.90
2019-06-07T14:40:31.967Z,24.90
2019-06-07T14:43:00.545Z,24.90
2019-06-07T14:45:29.794Z,24.90
2019-06-07T14:47:58.404Z,24.80
2019-06-07T14:50:28.175Z,24.70
2019-06-07T14:52:56.871Z,24.60
2019-06-07T14:55:26.833Z,24.40
2019-06-07T14:57:55.643Z,24.30
2019-06-07T15:00:28.287Z,24.20
2019-06-07T15:02:57.005Z,24.30
2019-06-07T15:05:31.213Z,24.40
2019-06-07T15:08:00.209Z,24.40
2019-06-07T15:10:28.754Z,24.50
2019-06-07T15:12:57.313Z,24.30
2019-06-07T15:15:26.363Z,24.40
2019-06-07T15:17:55.074Z,24.50
2019-06-07T15:20:23.787Z,24.50
2019-06-07T15:22:52.454Z,24.60
2019-06-07T15:25:21.055Z,24.60
2019-06-07T15:27:49.598Z,24.70
2019-06-07T15:30:18.949Z,24.80
2019-06-07T15:32:47.567Z,24.80
2019-06-07T15:35:16.257Z,24.80
2019-06-07T15:37:44.907Z,24.80
2019-06-07T15:40:14.195Z,24.90
2019-06-07T15:42:52.394Z,25.00
2019-06-07T15:45:13.480Z,25.00
2019-06-07T15:47:42.128Z,25.10
2019-06-07T15:50:11.414Z,25.20
2019-06-07T15:52:41.190Z,24.60
2019-06-07T15:55:10.859Z,23.50
2019-06-07T15:57:39.884Z,22.80
2019-06-07T16:00:15.003Z,22.10
2019-06-07T16:02:43.770Z,21.70
2019-06-07T16:05:31.953Z,21.30
2019-06-07T16:08:00.595Z,21.10
2019-06-07T16:10:29.218Z,20.80
2019-06-07T16:13:00.722Z,20.40
2019-06-07T16:15:28.143Z,20.30
2019-06-07T16:17:56.867Z,20.20
2019-06-07T16:20:25.491Z,20.30
2019-06-07T16:22:54.079Z,19.90
2019-06-07T16:25:22.767Z,19.70
2019-06-07T16:27:51.360Z,19.40
2019-06-07T16:30:20.347Z,19.30
2019-06-07T16:32:48.923Z,19.10
2019-06-07T16:35:17.706Z,19.10
2019-06-07T16:37:50.331Z,19.00
2019-06-07T16:40:17.371Z,18.90
2019-06-07T16:42:48.958Z,18.90
2019-06-07T16:45:18.190Z,18.60
2019-06-07T16:47:47.855Z,18.50
2019-06-07T16:50:17.217Z,18.40
2019-06-07T16:52:46.521Z,18.30
2019-06-07T16:55:16.907Z,18.10
2019-06-07T16:57:45.554Z,17.60
2019-06-07T17:00:36.015Z,17.30
2019-06-07T17:03:05.294Z,17.10
2019-06-07T17:05:33.914Z,17.00
2019-06-07T17:08:02.562Z,17.00
2019-06-07T17:10:31.113Z,16.80
2019-06-07T17:13:01.020Z,16.90
2019-06-07T17:15:29.755Z,16.80
2019-06-07T17:17:58.340Z,16.90
2019-06-07T17:20:27.026Z,16.70
2019-06-07T17:22:55.611Z,16.60
2019-06-07T17:25:24.226Z,16.70
2019-06-07T17:27:53.046Z,16.90
2019-06-07T17:30:23.387Z,17.00
2019-06-07T17:32:58.958Z,17.10
2019-06-07T17:35:23.573Z,17.20
2019-06-07T17:37:52.235Z,17.10
2019-06-07T17:40:21.543Z,17.10
2019-06-07T17:42:51.001Z,17.00
2019-06-07T17:45:21.478Z,16.90
2019-06-07T17:47:52.088Z,16.90
2019-06-07T17:50:42.142Z,16.70
2019-06-07T17:53:10.788Z,16.70
2019-06-07T17:55:39.650Z,16.70
2019-06-07T17:58:08.747Z,16.70
2019-06-07T18:00:58.214Z,16.70
2019-06-07T18:03:26.955Z,16.70
2019-06-07T18:05:56.202Z,16.70
2019-06-07T18:08:25.453Z,16.50
2019-06-07T18:10:54.426Z,16.30
2019-06-07T18:13:23.623Z,16.40
2019-06-07T18:16:11.593Z,16.10
2019-06-07T18:18:41.711Z,16.00
2019-06-07T18:21:10.391Z,15.90
2019-06-07T18:23:39.722Z,15.70
2019-06-07T18:26:08.503Z,15.50
2019-06-07T18:28:37.553Z,15.40
2019-06-07T18:31:06.699Z,15.40
2019-06-07T18:33:35.542Z,15.30
2019-06-07T18:36:04.799Z,15.40
2019-06-07T18:38:33.488Z,15.30
2019-06-07T18:41:02.165Z,15.20
2019-06-07T18:43:30.898Z,15.50
2019-06-07T18:45:59.593Z,15.30
2019-06-07T18:48:28.371Z,15.20
2019-06-07T18:50:57.228Z,15.00
2019-06-07T18:53:26.263Z,15.00
2019-06-07T18:55:56.223Z,14.90
2019-06-07T18:58:25.643Z,14.90
2019-06-07T19:00:55.475Z,15.00
2019-06-07T19:03:24.170Z,14.80
2019-06-07T19:05:52.754Z,14.80
2019-06-07T19:08:21.333Z,14.70
2019-06-07T19:10:50.703Z,14.60
2019-06-07T19:13:19.555Z,14.70
2019-06-07T19:15:49.710Z,14.80
2019-06-07T19:18:18.354Z,14.90
2019-06-07T19:20:46.901Z,14.70
2019-06-07T19:23:15.548Z,14.70
2019-06-07T19:25:45.226Z,14.60
2019-06-07T19:28:14.098Z,14.50
2019-06-07T19:30:42.718Z,14.40
2019-06-07T19:33:12.902Z,14.40
2019-06-07T19:35:43.253Z,14.30
2019-06-07T19:38:11.896Z,14.30
2019-06-07T19:40:40.581Z,14.30
2019-06-07T19:43:09.330Z,14.30
2019-06-07T19:45:37.953Z,14.20
2019-06-07T19:48:06.869Z,14.20
2019-06-07T19:50:35.873Z,14.30
2019-06-07T19:53:23.834Z,14.50
2019-06-07T19:55:53.071Z,14.50
2019-06-07T19:58:21.927Z,14.50
2019-06-07T20:00:50.468Z,14.60
2019-06-07T20:03:19.253Z,14.50
2019-06-07T20:05:47.890Z,14.70
2019-06-07T20:08:16.474Z,14.70
2019-06-07T20:10:45.443Z,14.60
2019-06-07T20:13:14.359Z,14.40
2019-06-07T20:15:43.322Z,14.30
2019-06-07T20:18:14.022Z,14.40
2019-06-07T20:20:42.639Z,14.20
2019-06-07T20:23:11.263Z,14.40
2019-06-07T20:25:39.950Z,14.40
2019-06-07T20:28:09.425Z,14.40
2019-06-07T20:30:38.030Z,14.30
2019-06-07T20:33:08.071Z,14.20
2019-06-07T20:35:36.851Z,14.20
2019-06-07T20:38:07.040Z,14.10
2019-06-07T20:40:35.582Z,14.20
2019-06-07T20:43:05.631Z,14.20
2019-06-07T20:45:34.475Z,14.20
2019-06-07T20:48:04.223Z,14.20
2019-06-07T20:50:32.905Z,14.20
2019-06-07T20:53:03.054Z,14.10
2019-06-07T20:55:31.764Z,14.20
2019-06-07T20:58:00.836Z,14.30
2019-06-07T21:00:29.379Z,14.30
2019-06-07T21:02:58.984Z,14.20
2019-06-07T21:05:27.595Z,14.20
2019-06-07T21:07:56.216Z,14.10
2019-06-07T21:10:24.869Z,14.10
2019-06-07T21:12:53.414Z,14.10
2019-06-07T21:15:22.054Z,14.20
2019-06-07T21:17:50.612Z,14.00
2019-06-07T21:20:19.323Z,14.10
2019-06-07T21:22:47.872Z,14.20
2019-06-07T21:25:16.520Z,14.20
2019-06-07T21:28:05.184Z,14.20
2019-06-07T21:30:33.838Z,14.20
2019-06-07T21:33:03.576Z,14.10
2019-06-07T21:35:32.327Z,14.10
2019-06-07T21:38:01.929Z,14.10
2019-06-07T21:40:31.746Z,13.90
2019-06-07T21:43:00.437Z,13.80
2019-06-07T21:45:29.038Z,13.70
2019-06-07T21:47:58.826Z,13.80
2019-06-07T21:50:27.391Z,13.80
2019-06-07T21:52:56.041Z,13.70
2019-06-07T21:55:24.655Z,13.70
2019-06-07T21:58:13.588Z,13.80
2019-06-07T22:00:57.512Z,13.80
2019-06-07T22:03:26.155Z,13.70
2019-06-07T22:05:54.772Z,13.60
2019-06-07T22:08:24.973Z,13.70
2019-06-07T22:10:53.513Z,13.70
2019-06-07T22:13:22.227Z,13.70
2019-06-07T22:15:50.773Z,13.70
2019-06-07T22:18:19.424Z,13.70
2019-06-07T22:20:48.039Z,13.90
2019-06-07T22:23:16.610Z,13.90
2019-06-07T22:25:45.167Z,13.80
2019-06-07T22:28:14.366Z,13.90
2019-06-07T22:30:43.033Z,14.00
2019-06-07T22:33:13.367Z,14.00
2019-06-07T22:35:41.835Z,14.00
2019-06-07T22:38:10.408Z,14.00
2019-06-07T22:40:39.029Z,14.10
2019-06-07T22:43:07.772Z,14.10
2019-06-07T22:45:36.323Z,14.10
2019-06-07T22:48:05.043Z,14.20
2019-06-07T22:50:33.663Z,14.20
2019-06-07T22:53:02.241Z,14.30
2019-06-07T22:55:30.853Z,14.50
2019-06-07T22:57:59.680Z,14.50
2019-06-07T23:00:30.400Z,14.40
2019-06-07T23:02:59.091Z,14.40
2019-06-07T23:05:27.843Z,14.40
2019-06-07T23:07:56.434Z,14.50
2019-06-07T23:10:25.111Z,14.40
2019-06-07T23:12:53.835Z,14.40
2019-06-07T23:15:22.445Z,14.30
2019-06-07T23:17:51.049Z,14.20
2019-06-07T23:20:21.253Z,14.30
2019-06-07T23:22:49.808Z,14.30
2019-06-07T23:25:22.387Z,14.30
2019-06-07T23:27:48.771Z,14.30
2019-06-07T23:30:18.739Z,14.40
2019-06-07T23:32:47.504Z,14.40
2019-06-07T23:35:17.309Z,14.60
2019-06-07T23:37:46.009Z,14.60
2019-06-07T23:40:15.317Z,14.70
2019-06-07T23:42:43.942Z,14.60
2019-06-07T23:45:33.392Z,14.70
2019-06-07T23:48:15.307Z,14.70
2019-06-07T23:50:55.678Z,14.90
2019-06-07T23:53:24.255Z,14.90
2019-06-07T23:55:52.806Z,15.00
2019-06-07T23:58:22.248Z,15.00
